sensor_id;sensor_type;location;lat;lon;timestamp;pressure;altitude;pressure_sealevel;temperature;humidity
40285;BME280;25997;50.214;19.354;2023-03-09T00:02:24;95586.19;;;5.77;63.70
40285;BME280;25997;50.214;19.354;2023-03-09T00:05:28;95590.47;;;5.72;64.21
40285;BME280;25997;50.214;19.354;2023-03-09T00:08:30;95594.88;;;5.77;64.40
40285;BME280;25997;50.214;19.354;2023-03-09T00:11:33;95589.63;;;5.76;64.76
40285;BME280;25997;50.214;19.354;2023-03-09T00:14:36;95594.88;;;5.77;65.11
40285;BME280;25997;50.214;19.354;2023-03-09T00:17:38;95581.84;;;5.79;65.37
40285;BME280;25997;50.214;19.354;2023-03-09T00:20:42;95587.94;;;5.78;65.49
40285;BME280;25997;50.214;19.354;2023-03-09T00:23:46;95602.66;;;5.80;65.77
40285;BME280;25997;50.214;19.354;2023-03-09T00:26:49;95603.50;;;5.70;66.73
40285;BME280;25997;50.214;19.354;2023-03-09T00:29:52;95598.31;;;5.76;66.48
40285;BME280;25997;50.214;19.354;2023-03-09T00:32:54;95597.41;;;5.70;67.27
40285;BME280;25997;50.214;19.354;2023-03-09T00:35:59;95595.75;;;5.78;66.76
40285;BME280;25997;50.214;19.354;2023-03-09T00:39:03;95593.13;;;5.76;67.38
40285;BME280;25997;50.214;19.354;2023-03-09T00:42:07;95600.94;;;5.73;67.87
40285;BME280;25997;50.214;19.354;2023-03-09T00:45:10;95592.16;;;5.59;68.86
40285;BME280;25997;50.214;19.354;2023-03-09T00:48:13;95602.69;;;5.77;68.26
40285;BME280;25997;50.214;19.354;2023-03-09T00:51:17;95607.03;;;5.83;67.89
40285;BME280;25997;50.214;19.354;2023-03-09T00:54:20;95594.03;;;5.84;68.40
40285;BME280;25997;50.214;19.354;2023-03-09T00:57:23;95600.19;;;6.00;67.87
40285;BME280;25997;50.214;19.354;2023-03-09T01:00:26;95595.88;;;6.06;67.57
40285;BME280;25997;50.214;19.354;2023-03-09T01:03:28;95599.34;;;6.11;67.49
40285;BME280;25997;50.214;19.354;2023-03-09T01:06:32;95594.97;;;6.09;67.73
40285;BME280;25997;50.214;19.354;2023-03-09T01:09:36;95592.38;;;6.09;67.92
40285;BME280;25997;50.214;19.354;2023-03-09T01:12:38;95580.22;;;6.09;67.92
40285;BME280;25997;50.214;19.354;2023-03-09T01:15:41;95582.88;;;6.24;67.08
40285;BME280;25997;50.214;19.354;2023-03-09T01:18:43;95576.00;;;6.34;66.53
40285;BME280;25997;50.214;19.354;2023-03-09T01:21:47;95570.81;;;6.49;65.81
40285;BME280;25997;50.214;19.354;2023-03-09T01:24:50;95576.03;;;6.58;65.16
40285;BME280;25997;50.214;19.354;2023-03-09T01:27:52;95570.84;;;6.67;64.65
40285;BME280;25997;50.214;19.354;2023-03-09T01:30:55;95567.38;;;6.70;64.67
40285;BME280;25997;50.214;19.354;2023-03-09T01:33:57;95560.41;;;6.72;64.25
40285;BME280;25997;50.214;19.354;2023-03-09T01:37:01;95557.81;;;6.72;64.52
40285;BME280;25997;50.214;19.354;2023-03-09T01:40:05;95553.44;;;6.65;64.39
40285;BME280;25997;50.214;19.354;2023-03-09T01:43:33;95546.50;;;6.67;64.76
40285;BME280;25997;50.214;19.354;2023-03-09T01:46:49;95548.25;;;6.62;64.88
40285;BME280;25997;50.214;19.354;2023-03-09T01:49:51;95540.44;;;6.62;64.59
40285;BME280;25997;50.214;19.354;2023-03-09T01:52:57;95535.19;;;6.65;64.38
40285;BME280;25997;50.214;19.354;2023-03-09T01:56:01;95539.56;;;6.67;64.26
40285;BME280;25997;50.214;19.354;2023-03-09T01:59:05;95530.00;;;6.69;64.30
40285;BME280;25997;50.214;19.354;2023-03-09T02:02:10;95537.84;;;6.71;64.23
40285;BME280;25997;50.214;19.354;2023-03-09T02:05:15;95533.47;;;6.74;63.93
40285;BME280;25997;50.214;19.354;2023-03-09T02:08:21;95542.16;;;6.76;63.91
40285;BME280;25997;50.214;19.354;2023-03-09T02:11:26;95537.84;;;6.75;63.79
40285;BME280;25997;50.214;19.354;2023-03-09T02:14:29;95525.66;;;6.70;63.98
40285;BME280;25997;50.214;19.354;2023-03-09T02:17:32;95523.91;;;6.67;64.10
40285;BME280;25997;50.214;19.354;2023-03-09T02:20:39;95523.94;;;6.69;63.99
40285;BME280;25997;50.214;19.354;2023-03-09T02:23:50;95530.84;;;6.71;63.91
40285;BME280;25997;50.214;19.354;2023-03-09T02:27:00;95520.44;;;6.68;64.01
40285;BME280;25997;50.214;19.354;2023-03-09T02:30:06;95529.16;;;6.64;64.15
40285;BME280;25997;50.214;19.354;2023-03-09T02:33:11;95520.44;;;6.56;64.50
40285;BME280;25997;50.214;19.354;2023-03-09T02:36:16;95523.91;;;6.52;64.67
40285;BME280;25997;50.214;19.354;2023-03-09T02:39:28;95519.56;;;6.51;64.75
40285;BME280;25997;50.214;19.354;2023-03-09T02:42:31;95524.78;;;6.53;64.66
40285;BME280;25997;50.214;19.354;2023-03-09T02:45:35;95525.66;;;6.55;64.59
40285;BME280;25997;50.214;19.354;2023-03-09T02:48:39;95522.16;;;6.54;64.60
40285;BME280;25997;50.214;19.354;2023-03-09T02:51:42;95525.63;;;6.52;64.79
40285;BME280;25997;50.214;19.354;2023-03-09T02:54:44;95529.13;;;6.46;65.19
40285;BME280;25997;50.214;19.354;2023-03-09T02:57:47;95527.38;;;6.45;65.33
40285;BME280;25997;50.214;19.354;2023-03-09T03:00:54;95528.25;;;6.46;65.63
40285;BME280;25997;50.214;19.354;2023-03-09T03:03:57;95526.50;;;6.48;65.60
40285;BME280;25997;50.214;19.354;2023-03-09T03:06:59;95527.38;;;6.37;66.47
40285;BME280;25997;50.214;19.354;2023-03-09T03:10:03;95529.97;;;6.41;66.58
40285;BME280;25997;50.214;19.354;2023-03-09T03:13:06;95517.81;;;6.36;66.82
40285;BME280;25997;50.214;19.354;2023-03-09T03:16:10;95519.56;;;6.39;66.85
40285;BME280;25997;50.214;19.354;2023-03-09T03:19:12;95503.03;;;6.38;67.15
40285;BME280;25997;50.214;19.354;2023-03-09T03:22:15;95513.47;;;6.38;67.40
40285;BME280;25997;50.214;19.354;2023-03-09T03:25:19;95504.78;;;6.52;66.86
40285;BME280;25997;50.214;19.354;2023-03-09T03:28:24;95505.66;;;6.61;66.43
40285;BME280;25997;50.214;19.354;2023-03-09T03:31:35;95488.31;;;6.66;66.26
40285;BME280;25997;50.214;19.354;2023-03-09T03:34:38;95490.91;;;6.63;66.33
40285;BME280;25997;50.214;19.354;2023-03-09T03:37:40;95493.53;;;6.66;66.43
40285;BME280;25997;50.214;19.354;2023-03-09T03:40:43;95487.44;;;6.70;66.00
40285;BME280;25997;50.214;19.354;2023-03-09T03:43:46;95488.28;;;6.72;65.94
40285;BME280;25997;50.214;19.354;2023-03-09T03:46:51;95480.47;;;6.75;65.98
40285;BME280;25997;50.214;19.354;2023-03-09T03:49:54;95478.72;;;6.76;65.96
40285;BME280;25997;50.214;19.354;2023-03-09T03:52:57;95490.00;;;6.78;65.98
40285;BME280;25997;50.214;19.354;2023-03-09T03:56:00;95484.78;;;6.78;65.90
40285;BME280;25997;50.214;19.354;2023-03-09T03:59:05;95485.69;;;6.77;65.87
40285;BME280;25997;50.214;19.354;2023-03-09T04:02:10;95481.31;;;6.76;66.09
40285;BME280;25997;50.214;19.354;2023-03-09T04:05:14;95482.19;;;6.78;66.11
40285;BME280;25997;50.214;19.354;2023-03-09T04:08:19;95487.41;;;6.79;66.27
40285;BME280;25997;50.214;19.354;2023-03-09T04:11:24;95486.56;;;6.82;66.28
40285;BME280;25997;50.214;19.354;2023-03-09T04:14:27;95487.41;;;6.87;66.39
40285;BME280;25997;50.214;19.354;2023-03-09T04:17:31;95490.00;;;6.99;66.12
40285;BME280;25997;50.214;19.354;2023-03-09T04:20:34;95487.38;;;7.09;65.79
40285;BME280;25997;50.214;19.354;2023-03-09T04:23:38;95483.88;;;7.09;66.00
40285;BME280;25997;50.214;19.354;2023-03-09T04:26:43;95482.16;;;7.12;65.82
40285;BME280;25997;50.214;19.354;2023-03-09T04:30:05;95485.63;;;7.13;66.06
40285;BME280;25997;50.214;19.354;2023-03-09T04:33:11;95478.69;;;7.07;66.30
40285;BME280;25997;50.214;19.354;2023-03-09T04:36:14;95469.97;;;7.13;65.92
40285;BME280;25997;50.214;19.354;2023-03-09T04:39:19;95474.31;;;7.11;66.21
40285;BME280;25997;50.214;19.354;2023-03-09T04:42:22;95468.25;;;7.15;66.04
40285;BME280;25997;50.214;19.354;2023-03-09T04:45:24;95465.63;;;7.13;66.22
40285;BME280;25997;50.214;19.354;2023-03-09T04:48:30;95463.00;;;7.18;66.00
40285;BME280;25997;50.214;19.354;2023-03-09T04:51:33;95462.13;;;7.19;66.03
40285;BME280;25997;50.214;19.354;2023-03-09T04:54:37;95459.53;;;7.19;66.04
40285;BME280;25997;50.214;19.354;2023-03-09T04:57:40;95455.16;;;7.23;65.84
40285;BME280;25997;50.214;19.354;2023-03-09T05:00:43;95453.41;;;7.25;65.60
40285;BME280;25997;50.214;19.354;2023-03-09T05:03:50;95443.84;;;7.24;65.99
40285;BME280;25997;50.214;19.354;2023-03-09T05:06:53;95445.59;;;7.23;65.76
40285;BME280;25997;50.214;19.354;2023-03-09T05:09:57;95442.97;;;7.23;65.99
40285;BME280;25997;50.214;19.354;2023-03-09T05:13:00;95441.25;;;7.19;66.15
40285;BME280;25997;50.214;19.354;2023-03-09T05:16:06;95437.78;;;7.17;66.26
40285;BME280;25997;50.214;19.354;2023-03-09T05:19:13;95450.81;;;7.20;66.25
40285;BME280;25997;50.214;19.354;2023-03-09T05:22:17;95447.31;;;7.23;66.04
40285;BME280;25997;50.214;19.354;2023-03-09T05:25:20;95444.72;;;7.24;65.96
40285;BME280;25997;50.214;19.354;2023-03-09T05:28:24;95450.78;;;7.32;65.84
40285;BME280;25997;50.214;19.354;2023-03-09T05:31:28;95448.16;;;7.37;65.67
40285;BME280;25997;50.214;19.354;2023-03-09T05:34:33;95446.44;;;7.37;65.54
40285;BME280;25997;50.214;19.354;2023-03-09T05:37:36;95446.41;;;7.40;65.54
40285;BME280;25997;50.214;19.354;2023-03-09T05:40:46;95445.56;;;7.40;65.40
40285;BME280;25997;50.214;19.354;2023-03-09T05:43:50;95443.81;;;7.42;65.41
40285;BME280;25997;50.214;19.354;2023-03-09T05:46:53;95442.91;;;7.44;65.32
40285;BME280;25997;50.214;19.354;2023-03-09T05:49:57;95442.03;;;7.48;65.25
40285;BME280;25997;50.214;19.354;2023-03-09T05:53:00;95440.25;;;7.52;65.13
40285;BME280;25997;50.214;19.354;2023-03-09T05:56:03;95441.97;;;7.56;65.11
40285;BME280;25997;50.214;19.354;2023-03-09T05:59:08;95441.09;;;7.58;64.93
40285;BME280;25997;50.214;19.354;2023-03-09T06:02:11;95440.22;;;7.61;64.87
40285;BME280;25997;50.214;19.354;2023-03-09T06:05:17;95439.34;;;7.65;64.96
40285;BME280;25997;50.214;19.354;2023-03-09T06:08:20;95435.88;;;7.66;64.95
40285;BME280;25997;50.214;19.354;2023-03-09T06:11:26;95435.84;;;7.72;64.75
40285;BME280;25997;50.214;19.354;2023-03-09T06:14:30;95428.88;;;7.77;64.58
40285;BME280;25997;50.214;19.354;2023-03-09T06:17:34;95429.72;;;7.82;64.47
40285;BME280;25997;50.214;19.354;2023-03-09T06:20:39;95434.03;;;7.88;64.69
40285;BME280;25997;50.214;19.354;2023-03-09T06:23:42;95433.09;;;7.99;64.57
40285;BME280;25997;50.214;19.354;2023-03-09T06:26:47;95429.53;;;8.08;64.51
40285;BME280;25997;50.214;19.354;2023-03-09T06:29:57;95429.47;;;8.20;64.30
40285;BME280;25997;50.214;19.354;2023-03-09T06:33:00;95430.28;;;8.26;63.98
40285;BME280;25997;50.214;19.354;2023-03-09T06:36:08;95437.19;;;8.35;63.83
40285;BME280;25997;50.214;19.354;2023-03-09T06:39:11;95434.56;;;8.36;63.97
40285;BME280;25997;50.214;19.354;2023-03-09T06:42:15;95431.03;;;8.40;63.75
40285;BME280;25997;50.214;19.354;2023-03-09T06:45:21;95432.75;;;8.43;63.69
40285;BME280;25997;50.214;19.354;2023-03-09T06:48:24;95426.66;;;8.45;63.69
40285;BME280;25997;50.214;19.354;2023-03-09T06:51:28;95427.56;;;8.41;63.93
40285;BME280;25997;50.214;19.354;2023-03-09T06:54:31;95427.59;;;8.37;63.59
40285;BME280;25997;50.214;19.354;2023-03-09T06:57:42;95422.31;;;8.40;63.80
40285;BME280;25997;50.214;19.354;2023-03-09T07:00:45;95412.72;;;8.40;63.99
40285;BME280;25997;50.214;19.354;2023-03-09T07:03:49;95410.97;;;8.42;63.91
40285;BME280;25997;50.214;19.354;2023-03-09T07:06:53;95413.59;;;8.41;63.93
40285;BME280;25997;50.214;19.354;2023-03-09T07:09:55;95415.34;;;8.42;63.81
40285;BME280;25997;50.214;19.354;2023-03-09T07:12:58;95404.00;;;8.43;63.81
40285;BME280;25997;50.214;19.354;2023-03-09T07:16:01;95412.75;;;8.42;63.72
40285;BME280;25997;50.214;19.354;2023-03-09T07:19:04;95404.06;;;8.37;63.76
40285;BME280;25997;50.214;19.354;2023-03-09T07:22:09;95404.00;;;8.43;63.92
40285;BME280;25997;50.214;19.354;2023-03-09T07:25:12;95415.31;;;8.45;63.78
40285;BME280;25997;50.214;19.354;2023-03-09T07:28:15;95403.16;;;8.41;63.69
40285;BME280;25997;50.214;19.354;2023-03-09T07:31:17;95403.09;;;8.47;63.80
40285;BME280;25997;50.214;19.354;2023-03-09T07:34:21;95396.97;;;8.49;63.75
40285;BME280;25997;50.214;19.354;2023-03-09T07:37:25;95396.09;;;8.50;63.70
40285;BME280;25997;50.214;19.354;2023-03-09T07:40:27;95388.16;;;8.58;64.10
40285;BME280;25997;50.214;19.354;2023-03-09T07:43:29;95383.72;;;8.68;63.80
40285;BME280;25997;50.214;19.354;2023-03-09T07:46:40;95387.13;;;8.76;63.78
40285;BME280;25997;50.214;19.354;2023-03-09T07:49:43;95385.41;;;8.78;63.72
40285;BME280;25997;50.214;19.354;2023-03-09T07:52:47;95393.16;;;8.82;63.70
40285;BME280;25997;50.214;19.354;2023-03-09T07:55:54;95398.41;;;8.84;63.46
40285;BME280;25997;50.214;19.354;2023-03-09T07:58:57;95406.34;;;8.75;63.66
40285;BME280;25997;50.214;19.354;2023-03-09T08:01:59;95408.13;;;8.70;63.57
40285;BME280;25997;50.214;19.354;2023-03-09T08:05:02;95403.88;;;8.58;63.73
40285;BME280;25997;50.214;19.354;2023-03-09T08:08:06;95416.19;;;8.42;64.34
40285;BME280;25997;50.214;19.354;2023-03-09T08:11:09;95408.53;;;8.23;64.63
40285;BME280;25997;50.214;19.354;2023-03-09T08:14:11;95419.03;;;8.17;64.97
40285;BME280;25997;50.214;19.354;2023-03-09T08:17:14;95415.56;;;8.12;65.28
40285;BME280;25997;50.214;19.354;2023-03-09T08:20:17;95412.97;;;8.12;65.74
40285;BME280;25997;50.214;19.354;2023-03-09T08:23:21;95413.03;;;8.03;66.08
40285;BME280;25997;50.214;19.354;2023-03-09T08:26:23;95408.66;;;8.05;66.33
40285;BME280;25997;50.214;19.354;2023-03-09T08:29:26;95411.31;;;8.02;66.70
40285;BME280;25997;50.214;19.354;2023-03-09T08:32:28;95409.47;;;8.13;66.61
40285;BME280;25997;50.214;19.354;2023-03-09T08:35:31;95411.13;;;8.26;66.30
40285;BME280;25997;50.214;19.354;2023-03-09T08:38:35;95424.16;;;8.30;66.37
40285;BME280;25997;50.214;19.354;2023-03-09T08:41:38;95418.03;;;8.33;66.91
40285;BME280;25997;50.214;19.354;2023-03-09T08:44:40;95417.06;;;8.43;66.64
40285;BME280;25997;50.214;19.354;2023-03-09T08:47:43;95411.91;;;8.37;66.95
40285;BME280;25997;50.214;19.354;2023-03-09T08:50:45;95418.81;;;8.45;66.90
40285;BME280;25997;50.214;19.354;2023-03-09T08:53:50;95418.03;;;8.34;67.36
40285;BME280;25997;50.214;19.354;2023-03-09T08:56:53;95420.78;;;8.15;67.90
40285;BME280;25997;50.214;19.354;2023-03-09T08:59:56;95430.41;;;8.05;68.42
40285;BME280;25997;50.214;19.354;2023-03-09T09:02:58;95424.19;;;8.26;68.08
40285;BME280;25997;50.214;19.354;2023-03-09T09:06:06;95425.16;;;8.10;68.33
40285;BME280;25997;50.214;19.354;2023-03-09T09:09:11;95434.69;;;8.21;68.50
40285;BME280;25997;50.214;19.354;2023-03-09T09:12:13;95421.41;;;8.47;68.21
40285;BME280;25997;50.214;19.354;2023-03-09T09:15:16;95426.53;;;8.59;68.20
40285;BME280;25997;50.214;19.354;2023-03-09T09:18:19;95424.66;;;8.72;68.04
40285;BME280;25997;50.214;19.354;2023-03-09T09:21:22;95431.63;;;8.74;68.01
40285;BME280;25997;50.214;19.354;2023-03-09T09:24:26;95433.41;;;8.71;67.83
40285;BME280;25997;50.214;19.354;2023-03-09T09:27:29;95433.44;;;8.66;67.80
40285;BME280;25997;50.214;19.354;2023-03-09T09:30:31;95433.38;;;8.72;67.70
40285;BME280;25997;50.214;19.354;2023-03-09T09:33:34;95431.59;;;8.76;67.69
40285;BME280;25997;50.214;19.354;2023-03-09T09:36:38;95433.44;;;8.66;68.03
40285;BME280;25997;50.214;19.354;2023-03-09T09:39:42;95438.00;;;8.43;68.73
40285;BME280;25997;50.214;19.354;2023-03-09T09:42:45;95445.75;;;8.55;68.62
40285;BME280;25997;50.214;19.354;2023-03-09T09:45:52;95449.19;;;8.62;68.44
40285;BME280;25997;50.214;19.354;2023-03-09T09:48:56;95447.41;;;8.65;68.54
40285;BME280;25997;50.214;19.354;2023-03-09T09:52:11;95457.16;;;8.46;69.03
40285;BME280;25997;50.214;19.354;2023-03-09T09:55:22;95454.41;;;8.60;68.96
40285;BME280;25997;50.214;19.354;2023-03-09T09:58:32;95458.72;;;8.66;68.95
40285;BME280;25997;50.214;19.354;2023-03-09T10:01:43;95460.66;;;8.42;69.40
40285;BME280;25997;50.214;19.354;2023-03-09T10:04:53;95461.38;;;8.61;69.17
40285;BME280;25997;50.214;19.354;2023-03-09T10:08:00;95456.94;;;8.71;69.00
40285;BME280;25997;50.214;19.354;2023-03-09T10:11:13;95455.06;;;8.86;68.75
40285;BME280;25997;50.214;19.354;2023-03-09T10:14:22;95459.41;;;8.89;69.00
40285;BME280;25997;50.214;19.354;2023-03-09T10:17:29;95476.91;;;8.81;69.02
40285;BME280;25997;50.214;19.354;2023-03-09T10:20:37;95486.66;;;8.64;69.30
40285;BME280;25997;50.214;19.354;2023-03-09T10:23:42;95481.25;;;8.80;68.73
40285;BME280;25997;50.214;19.354;2023-03-09T10:26:51;95487.31;;;8.87;68.85
40285;BME280;25997;50.214;19.354;2023-03-09T10:30:01;95493.31;;;9.04;68.57
40285;BME280;25997;50.214;19.354;2023-03-09T10:33:08;95502.00;;;9.06;68.98
40285;BME280;25997;50.214;19.354;2023-03-09T10:36:18;95510.66;;;9.12;68.62
40285;BME280;25997;50.214;19.354;2023-03-09T10:39:24;95521.97;;;9.16;68.62
40285;BME280;25997;50.214;19.354;2023-03-09T10:42:33;95531.53;;;9.20;68.35
40285;BME280;25997;50.214;19.354;2023-03-09T10:45:37;95531.53;;;9.21;67.80
40285;BME280;25997;50.214;19.354;2023-03-09T10:48:40;95537.41;;;9.46;67.33
40285;BME280;25997;50.214;19.354;2023-03-09T10:51:44;95581.44;;;9.02;66.59
40285;BME280;25997;50.214;19.354;2023-03-09T10:54:55;95567.38;;;9.09;66.47
40285;BME280;25997;50.214;19.354;2023-03-09T10:58:00;95572.75;;;8.97;66.21
40285;BME280;25997;50.214;19.354;2023-03-09T11:01:08;95578.00;;;8.95;66.43
40285;BME280;25997;50.214;19.354;2023-03-09T11:04:30;95594.69;;;8.72;66.61
40285;BME280;25997;50.214;19.354;2023-03-09T11:07:35;95581.59;;;8.72;66.81
40285;BME280;25997;50.214;19.354;2023-03-09T11:10:38;95591.22;;;8.70;66.91
40285;BME280;25997;50.214;19.354;2023-03-09T11:13:43;95597.44;;;8.44;67.84
40285;BME280;25997;50.214;19.354;2023-03-09T11:16:49;95614.91;;;8.38;67.93
40285;BME280;25997;50.214;19.354;2023-03-09T11:20:18;95622.81;;;8.27;68.45
40285;BME280;25997;50.214;19.354;2023-03-09T11:23:26;95635.03;;;8.21;68.48
40285;BME280;25997;50.214;19.354;2023-03-09T11:26:34;95628.09;;;8.17;68.44
40285;BME280;25997;50.214;19.354;2023-03-09T11:29:47;95642.88;;;8.18;68.53
40285;BME280;25997;50.214;19.354;2023-03-09T11:32:53;95642.88;;;8.21;68.50
40285;BME280;25997;50.214;19.354;2023-03-09T11:35:56;95660.31;;;8.11;68.44
40285;BME280;25997;50.214;19.354;2023-03-09T11:39:00;95658.59;;;8.12;68.40
40285;BME280;25997;50.214;19.354;2023-03-09T11:42:08;95660.31;;;8.19;68.59
40285;BME280;25997;50.214;19.354;2023-03-09T11:45:16;95667.19;;;8.38;68.43
40285;BME280;25997;50.214;19.354;2023-03-09T11:48:22;95692.50;;;8.31;68.77
40285;BME280;25997;50.214;19.354;2023-03-09T11:51:29;95701.25;;;8.26;68.83
40285;BME280;25997;50.214;19.354;2023-03-09T11:54:34;95700.28;;;8.48;68.50
40285;BME280;25997;50.214;19.354;2023-03-09T11:57:39;95702.97;;;8.30;68.75
40285;BME280;25997;50.214;19.354;2023-03-09T12:00:49;95702.84;;;8.58;68.50
40285;BME280;25997;50.214;19.354;2023-03-09T12:03:59;95716.88;;;8.44;68.42
40285;BME280;25997;50.214;19.354;2023-03-09T12:07:05;95729.06;;;8.46;68.54
40285;BME280;25997;50.214;19.354;2023-03-09T12:10:15;95733.41;;;8.52;68.16
40285;BME280;25997;50.214;19.354;2023-03-09T12:13:23;95742.97;;;8.51;67.98
40285;BME280;25997;50.214;19.354;2023-03-09T12:16:31;95742.09;;;8.55;67.77
40285;BME280;25997;50.214;19.354;2023-03-09T12:19:35;95752.66;;;8.25;68.74
40285;BME280;25997;50.214;19.354;2023-03-09T12:22:38;95755.22;;;8.45;67.80
40285;BME280;25997;50.214;19.354;2023-03-09T12:25:55;95753.41;;;8.64;67.10
40285;BME280;25997;50.214;19.354;2023-03-09T12:29:02;95764.81;;;8.43;67.40
40285;BME280;25997;50.214;19.354;2023-03-09T12:39:30;95777.00;;;8.42;66.85
40285;BME280;25997;50.214;19.354;2023-03-09T12:42:38;95791.81;;;8.43;67.12
40285;BME280;25997;50.214;19.354;2023-03-09T12:45:42;95804.88;;;8.52;66.96
40285;BME280;25997;50.214;19.354;2023-03-09T12:48:46;95807.47;;;8.55;66.36
40285;BME280;25997;50.214;19.354;2023-03-09T12:52:10;95818.81;;;8.56;65.89
40285;BME280;25997;50.214;19.354;2023-03-09T12:55:17;95826.66;;;8.58;65.86
40285;BME280;25997;50.214;19.354;2023-03-09T12:58:41;95834.53;;;8.48;64.86
40285;BME280;25997;50.214;19.354;2023-03-09T13:01:45;95832.75;;;8.49;65.21
40285;BME280;25997;50.214;19.354;2023-03-09T13:05:26;95844.13;;;8.46;64.45
40285;BME280;25997;50.214;19.354;2023-03-09T13:08:31;95861.53;;;8.56;64.69
40285;BME280;25997;50.214;19.354;2023-03-09T13:11:36;95854.56;;;8.58;64.20
40285;BME280;25997;50.214;19.354;2023-03-09T13:15:18;95858.91;;;8.49;63.27
40285;BME280;25997;50.214;19.354;2023-03-09T13:18:23;95919.06;;;8.41;63.24
40285;BME280;25997;50.214;19.354;2023-03-09T13:21:43;95885.94;;;8.49;63.51
40285;BME280;25997;50.214;19.354;2023-03-09T13:24:49;95899.91;;;8.45;62.52
40285;BME280;25997;50.214;19.354;2023-03-09T13:28:00;95889.41;;;8.92;62.20
40285;BME280;25997;50.214;19.354;2023-03-09T13:31:08;95899.84;;;9.01;61.93
40285;BME280;25997;50.214;19.354;2023-03-09T13:34:22;95917.28;;;8.81;61.37
40285;BME280;25997;50.214;19.354;2023-03-09T13:37:29;95919.91;;;8.78;61.74
40285;BME280;25997;50.214;19.354;2023-03-09T13:40:34;95932.13;;;8.70;61.86
40285;BME280;25997;50.214;19.354;2023-03-09T13:43:45;95930.38;;;8.77;61.64
40285;BME280;25997;50.214;19.354;2023-03-09T13:46:50;95953.06;;;8.60;61.74
40285;BME280;25997;50.214;19.354;2023-03-09T13:49:55;95960.91;;;8.55;61.99
40285;BME280;25997;50.214;19.354;2023-03-09T13:53:00;95975.72;;;8.47;61.63
40285;BME280;25997;50.214;19.354;2023-03-09T13:56:05;95987.91;;;8.33;61.72
40285;BME280;25997;50.214;19.354;2023-03-09T13:59:13;95992.25;;;8.29;61.03
40285;BME280;25997;50.214;19.354;2023-03-09T14:02:15;96000.13;;;8.46;61.57
40285;BME280;25997;50.214;19.354;2023-03-09T14:05:20;96014.06;;;8.49;59.82
40285;BME280;25997;50.214;19.354;2023-03-09T14:08:25;96010.63;;;8.64;60.28
40285;BME280;25997;50.214;19.354;2023-03-09T14:11:29;96013.19;;;8.43;59.34
40285;BME280;25997;50.214;19.354;2023-03-09T14:14:32;96021.03;;;8.34;59.26
40285;BME280;25997;50.214;19.354;2023-03-09T14:17:35;96027.97;;;8.29;59.06
40285;BME280;25997;50.214;19.354;2023-03-09T14:20:39;96037.63;;;8.48;58.34
40285;BME280;25997;50.214;19.354;2023-03-09T14:23:43;96027.13;;;8.31;57.76
40285;BME280;25997;50.214;19.354;2023-03-09T14:26:47;96025.44;;;8.77;58.28
40285;BME280;25997;50.214;19.354;2023-03-09T14:29:50;96030.72;;;9.01;58.12
40285;BME280;25997;50.214;19.354;2023-03-09T14:32:56;96043.78;;;8.98;56.79
40285;BME280;25997;50.214;19.354;2023-03-09T14:36:13;96035.03;;;9.20;57.31
40285;BME280;25997;50.214;19.354;2023-03-09T14:39:24;96040.28;;;9.14;56.14
40285;BME280;25997;50.214;19.354;2023-03-09T14:42:31;96052.50;;;9.14;56.85
40285;BME280;25997;50.214;19.354;2023-03-09T14:45:33;96061.22;;;8.96;56.27
40285;BME280;25997;50.214;19.354;2023-03-09T14:48:36;96065.59;;;8.91;56.49
40285;BME280;25997;50.214;19.354;2023-03-09T14:51:38;96053.34;;;9.34;56.30
40285;BME280;25997;50.214;19.354;2023-03-09T14:54:43;96053.19;;;9.91;56.59
40285;BME280;25997;50.214;19.354;2023-03-09T14:57:46;96060.13;;;10.24;55.40
40285;BME280;25997;50.214;19.354;2023-03-09T15:00:48;96060.16;;;10.05;55.34
40285;BME280;25997;50.214;19.354;2023-03-09T15:03:51;96067.31;;;9.45;54.33
40285;BME280;25997;50.214;19.354;2023-03-09T15:06:54;96085.66;;;8.98;55.16
40285;BME280;25997;50.214;19.354;2023-03-09T15:09:58;96089.03;;;8.53;55.51
40285;BME280;25997;50.214;19.354;2023-03-09T15:13:00;96091.66;;;8.41;56.02
40285;BME280;25997;50.214;19.354;2023-03-09T15:16:04;96099.44;;;8.25;55.57
40285;BME280;25997;50.214;19.354;2023-03-09T15:19:12;96095.06;;;8.19;54.79
40285;BME280;25997;50.214;19.354;2023-03-09T15:22:17;96093.31;;;8.15;54.34
40285;BME280;25997;50.214;19.354;2023-03-09T15:25:22;96100.22;;;8.04;55.67
40285;BME280;25997;50.214;19.354;2023-03-09T15:28:25;96106.34;;;8.06;55.50
40285;BME280;25997;50.214;19.354;2023-03-09T15:31:27;96095.94;;;8.21;55.96
40285;BME280;25997;50.214;19.354;2023-03-09T15:34:30;96103.78;;;8.29;56.09
40285;BME280;25997;50.214;19.354;2023-03-09T15:37:33;96123.00;;;8.38;55.88
40285;BME280;25997;50.214;19.354;2023-03-09T15:40:39;96111.63;;;8.27;56.20
40285;BME280;25997;50.214;19.354;2023-03-09T15:43:42;96102.91;;;8.21;56.11
40285;BME280;25997;50.214;19.354;2023-03-09T15:46:44;96110.78;;;8.28;56.53
40285;BME280;25997;50.214;19.354;2023-03-09T15:49:48;96121.22;;;8.25;56.62
40285;BME280;25997;50.214;19.354;2023-03-09T15:52:50;96130.72;;;8.11;56.17
40285;BME280;25997;50.214;19.354;2023-03-09T15:55:58;96133.31;;;8.07;56.69
40285;BME280;25997;50.214;19.354;2023-03-09T15:59:01;96131.50;;;7.89;56.47
40285;BME280;25997;50.214;19.354;2023-03-09T16:02:03;96136.69;;;7.84;56.57
40285;BME280;25997;50.214;19.354;2023-03-09T16:05:08;96138.38;;;7.72;56.67
40285;BME280;25997;50.214;19.354;2023-03-09T16:08:11;96124.34;;;7.62;56.89
40285;BME280;25997;50.214;19.354;2023-03-09T16:11:15;96135.50;;;7.39;56.49
40285;BME280;25997;50.214;19.354;2023-03-09T16:14:18;96143.31;;;7.40;56.96
40285;BME280;25997;50.214;19.354;2023-03-09T16:17:21;96147.72;;;7.46;56.98
40285;BME280;25997;50.214;19.354;2023-03-09T16:20:23;96147.63;;;7.31;57.04
40285;BME280;25997;50.214;19.354;2023-03-09T16:23:26;96158.88;;;7.27;57.32
40285;BME280;25997;50.214;19.354;2023-03-09T16:26:30;96158.91;;;7.28;57.25
40285;BME280;25997;50.214;19.354;2023-03-09T16:29:39;96170.19;;;7.24;56.97